Time;durP1;ratioP1;P1;durP2;ratioP2;P2;SDS_P1;SDS_P2;PMS_P1;PMS_P2;Temp;Humidity;BMP_temperature;BMP_pressure;BME280_temperature;BME280_humidity;BME280_pressure;Samples;Min_cycle;Max_cycle;Signal;HPM_P1;HPM_P2
2022/04/29 00:00:07;;;;;;;9.02;4.00;;;;;;;;;;4726661;30;20485;-93
2022/04/29 00:02:34;;;;;;;11.63;3.72;;;;;;;;;;4726701;30;20502;-93
2022/04/29 00:05:00;;;;;;;7.07;3.92;;;;;;;;;;4726486;30;20048;-92
2022/04/29 00:07:27;;;;;;;6.03;4.32;;;;;;;;;;4727661;30;20048;-93
2022/04/29 00:09:53;;;;;;;5.95;3.83;;;;;;;;;;4740540;30;20135;-93
2022/04/29 00:12:19;;;;;;;8.55;3.63;;;;;;;;;;4726831;30;20131;-93
2022/04/29 00:14:46;;;;;;;10.32;4.18;;;;;;;;;;4725651;30;20060;-92
2022/04/29 00:17:12;;;;;;;7.45;3.55;;;;;;;;;;4714164;30;20060;-92
2022/04/29 00:19:39;;;;;;;8.10;4.38;;;;;;;;;;4709091;30;20056;-92
2022/04/29 00:22:05;;;;;;;7.60;3.72;;;;;;;;;;4710185;30;20048;-91
2022/04/29 00:24:31;;;;;;;6.65;4.20;;;;;;;;;;4709123;30;20104;-93
2022/04/29 00:26:58;;;;;;;4.50;3.47;;;;;;;;;;4725074;30;20065;-93
2022/04/29 00:29:30;;;;;;;5.55;4.35;;;;;;;;;;4709153;30;20045;-93
2022/04/29 00:31:56;;;;;;;6.75;4.40;;;;;;;;;;4709148;30;20122;-93
2022/04/29 00:34:22;;;;;;;8.10;4.55;;;;;;;;;;4708838;30;20454;-92
2022/04/29 00:36:49;;;;;;;6.35;3.65;;;;;;;;;;4709453;30;20506;-92
2022/04/29 00:39:15;;;;;;;7.32;4.55;;;;;;;;;;4708560;30;20064;-94
2022/04/29 00:41:44;;;;;;;12.90;4.35;;;;;;;;;;4713875;30;20056;-95
2022/04/29 00:44:11;;;;;;;6.82;4.15;;;;;;;;;;4715484;30;20045;-94
2022/04/29 00:46:41;;;;;;;7.30;4.53;;;;;;;;;;4715248;30;20052;-94
2022/04/29 00:49:09;;;;;;;7.90;4.70;;;;;;;;;;4714348;30;20514;-94
2022/04/29 00:51:36;;;;;;;7.53;4.35;;;;;;;;;;4713981;30;20076;-93
2022/04/29 00:54:03;;;;;;;7.00;3.83;;;;;;;;;;4713532;30;20048;-94
2022/04/29 00:56:30;;;;;;;7.22;4.38;;;;;;;;;;4715015;30;20052;-93
2022/04/29 00:59:01;;;;;;;8.32;4.22;;;;;;;;;;4714428;30;20144;-94
2022/04/29 01:01:29;;;;;;;7.60;4.40;;;;;;;;;;4729398;30;20060;-94
2022/04/29 01:03:59;;;;;;;15.05;4.80;;;;;;;;;;4714884;30;20052;-95
2022/04/29 01:06:26;;;;;;;7.15;4.53;;;;;;;;;;4713630;30;20147;-94
2022/04/29 01:08:52;;;;;;;9.38;4.32;;;;;;;;;;4714415;30;20056;-95
2022/04/29 01:11:21;;;;;;;13.68;4.50;;;;;;;;;;4714806;30;20044;-93
2022/04/29 01:13:47;;;;;;;10.13;5.38;;;;;;;;;;4729434;30;20142;-93
2022/04/29 01:16:13;;;;;;;11.95;5.15;;;;;;;;;;4728787;30;20060;-93
2022/04/29 01:18:41;;;;;;;11.68;5.30;;;;;;;;;;4714172;30;20056;-92
2022/04/29 01:21:07;;;;;;;7.28;4.22;;;;;;;;;;4714932;30;20064;-94
2022/04/29 01:23:33;;;;;;;12.77;5.78;;;;;;;;;;4714150;30;20087;-91
2022/04/29 01:25:59;;;;;;;6.30;4.70;;;;;;;;;;4727415;30;20399;-93
2022/04/29 01:28:26;;;;;;;9.75;5.95;;;;;;;;;;4730396;30;20053;-93
2022/04/29 01:30:56;;;;;;;14.82;5.70;;;;;;;;;;4714344;30;20045;-92
2022/04/29 01:33:22;;;;;;;6.93;4.53;;;;;;;;;;4713044;30;20056;-92
2022/04/29 01:35:48;;;;;;;7.38;4.13;;;;;;;;;;4713189;30;20439;-92
2022/04/29 01:38:14;;;;;;;8.98;3.97;;;;;;;;;;4728532;30;20060;-92
2022/04/29 01:40:40;;;;;;;10.43;4.20;;;;;;;;;;4713866;30;20049;-93
2022/04/29 01:43:06;;;;;;;5.95;3.72;;;;;;;;;;4714563;30;20056;-92
2022/04/29 01:45:32;;;;;;;9.75;4.28;;;;;;;;;;4712628;30;20053;-91
2022/04/29 01:47:58;;;;;;;5.85;2.78;;;;;;;;;;4712997;30;20057;-91
2022/04/29 01:50:26;;;;;;;4.22;2.60;;;;;;;;;;4728953;30;20072;-90
2022/04/29 01:52:52;;;;;;;4.13;2.53;;;;;;;;;;4710320;30;20057;-89
2022/04/29 01:55:18;;;;;;;4.30;3.60;;;;;;;;;;4710419;30;20057;-90
2022/04/29 01:57:46;;;;;;;4.80;4.25;;;;;;;;;;4710619;30;20109;-89
2022/04/29 02:00:12;;;;;;;6.28;4.18;;;;;;;;;;4709631;30;20045;-90
2022/04/29 02:02:38;;;;;;;10.20;5.00;;;;;;;;;;4710426;30;20063;-90
2022/04/29 02:05:04;;;;;;;13.48;4.80;;;;;;;;;;4710762;30;20048;-89
2022/04/29 02:07:30;;;;;;;7.20;4.07;;;;;;;;;;4709674;30;20052;-89
2022/04/29 02:09:56;;;;;;;7.22;4.68;;;;;;;;;;4709343;30;20092;-88
2022/04/29 02:12:22;;;;;;;13.27;5.00;;;;;;;;;;4709684;30;20106;-89
2022/04/29 02:14:49;;;;;;;12.35;3.97;;;;;;;;;;4709563;30;20063;-89
2022/04/29 02:17:15;;;;;;;5.28;3.95;;;;;;;;;;4736520;30;20064;-90
2022/04/29 02:19:41;;;;;;;7.25;4.63;;;;;;;;;;4741161;30;20052;-90
2022/04/29 02:22:08;;;;;;;17.15;5.05;;;;;;;;;;4726230;30;20114;-90
2022/04/29 02:24:34;;;;;;;7.82;5.72;;;;;;;;;;4724888;30;20080;-89
2022/04/29 02:27:02;;;;;;;9.00;4.40;;;;;;;;;;4727033;30;20052;-90
2022/04/29 02:29:28;;;;;;;10.80;5.43;;;;;;;;;;4728352;30;20119;-89
2022/04/29 02:31:55;;;;;;;6.43;5.00;;;;;;;;;;4726231;30;20498;-89
2022/04/29 02:34:21;;;;;;;7.70;5.70;;;;;;;;;;4726475;30;20090;-89
2022/04/29 02:36:48;;;;;;;10.32;6.18;;;;;;;;;;4725797;30;20533;-89
2022/04/29 02:39:14;;;;;;;5.18;4.13;;;;;;;;;;4726730;30;20201;-89
2022/04/29 02:41:40;;;;;;;6.63;4.13;;;;;;;;;;4725985;30;20135;-89
2022/04/29 02:44:06;;;;;;;7.70;4.75;;;;;;;;;;4726482;30;20087;-89
2022/04/29 02:46:33;;;;;;;6.80;4.57;;;;;;;;;;4726568;30;20051;-89
2022/04/29 02:48:59;;;;;;;7.95;4.25;;;;;;;;;;4724988;30;20738;-90
2022/04/29 02:51:26;;;;;;;10.27;5.25;;;;;;;;;;4726926;30;20058;-90
2022/04/29 02:53:52;;;;;;;10.82;5.97;;;;;;;;;;4740877;30;20042;-88
2022/04/29 02:56:18;;;;;;;6.53;4.28;;;;;;;;;;4725801;30;20059;-88
2022/04/29 02:58:44;;;;;;;6.20;3.33;;;;;;;;;;4724955;30;20052;-89
2022/04/29 03:01:10;;;;;;;7.55;5.07;;;;;;;;;;4726587;30;20106;-89
2022/04/29 03:03:37;;;;;;;10.30;5.55;;;;;;;;;;4725387;30;20044;-89
2022/04/29 03:06:04;;;;;;;5.70;4.68;;;;;;;;;;4725701;30;20056;-88
2022/04/29 03:08:30;;;;;;;8.90;5.10;;;;;;;;;;4725636;30;20471;-88
2022/04/29 03:10:56;;;;;;;8.45;5.05;;;;;;;;;;4724840;30;20058;-88
2022/04/29 03:13:22;;;;;;;7.53;4.97;;;;;;;;;;4725690;30;20048;-89
2022/04/29 03:15:48;;;;;;;7.35;3.92;;;;;;;;;;4726869;30;20498;-90
2022/04/29 03:18:23;;;;;;;4.75;3.83;;;;;;;;;;4725744;30;20064;-90
2022/04/29 03:20:50;;;;;;;6.10;4.13;;;;;;;;;;4741743;30;20055;-90
2022/04/29 03:23:16;;;;;;;7.05;4.38;;;;;;;;;;4740177;30;20139;-90
2022/04/29 03:25:42;;;;;;;12.40;4.60;;;;;;;;;;4725002;30;20502;-91
2022/04/29 03:28:09;;;;;;;5.55;4.53;;;;;;;;;;4740540;30;20048;-92
2022/04/29 03:30:36;;;;;;;9.02;4.55;;;;;;;;;;4726237;30;20059;-90
2022/04/29 03:33:03;;;;;;;5.78;4.82;;;;;;;;;;4726719;30;20502;-91
2022/04/29 03:35:29;;;;;;;9.88;5.90;;;;;;;;;;4725023;30;20109;-90
2022/04/29 03:37:56;;;;;;;7.55;4.97;;;;;;;;;;4725640;30;20055;-91
2022/04/29 03:40:22;;;;;;;11.18;5.35;;;;;;;;;;4725561;30;20563;-90
2022/04/29 03:42:52;;;;;;;8.40;4.95;;;;;;;;;;4725179;30;20052;-91
2022/04/29 03:45:18;;;;;;;6.38;4.68;;;;;;;;;;4725147;30;20163;-91
2022/04/29 03:47:44;;;;;;;10.60;5.22;;;;;;;;;;4725573;30;20482;-89
2022/04/29 03:50:10;;;;;;;6.93;5.15;;;;;;;;;;4739583;30;20048;-90
2022/04/29 03:52:50;;;;;;;12.25;5.20;;;;;;;;;;4726878;30;20048;-90
2022/04/29 03:55:16;;;;;;;8.02;4.85;;;;;;;;;;4724908;30;20514;-90
2022/04/29 03:57:42;;;;;;;9.55;5.03;;;;;;;;;;4739904;30;20055;-91
2022/04/29 04:00:09;;;;;;;8.48;5.13;;;;;;;;;;4725705;30;20055;-91
2022/04/29 04:02:35;;;;;;;7.40;4.93;;;;;;;;;;4740198;30;20545;-92
2022/04/29 04:05:01;;;;;;;15.40;6.05;;;;;;;;;;4740048;30;20529;-91
2022/04/29 04:07:27;;;;;;;7.97;5.22;;;;;;;;;;4725684;30;20136;-91
2022/04/29 04:09:53;;;;;;;10.60;5.47;;;;;;;;;;4725474;30;20048;-91
2022/04/29 04:12:20;;;;;;;10.55;5.40;;;;;;;;;;4725850;30;20064;-92
2022/04/29 04:14:48;;;;;;;15.82;5.07;;;;;;;;;;4723956;30;20052;-92
2022/04/29 04:17:14;;;;;;;6.53;4.60;;;;;;;;;;4739682;30;20121;-92
2022/04/29 04:19:40;;;;;;;11.40;5.15;;;;;;;;;;4740598;30;20109;-92
2022/04/29 04:22:06;;;;;;;8.52;4.97;;;;;;;;;;4727282;30;20063;-91
2022/04/29 04:24:33;;;;;;;9.43;5.53;;;;;;;;;;4740229;30;20048;-91
2022/04/29 04:26:59;;;;;;;7.53;6.10;;;;;;;;;;4740105;30;20574;-92
2022/04/29 04:29:25;;;;;;;10.07;5.90;;;;;;;;;;4728643;30;20415;-92
2022/04/29 04:31:52;;;;;;;11.30;6.53;;;;;;;;;;4727380;30;20056;-91
2022/04/29 04:37:03;;;;;;;11.57;6.43;;;;;;;;;;4739990;30;20052;-90
2022/04/29 04:39:29;;;;;;;10.13;5.63;;;;;;;;;;4741773;30;20048;-90
2022/04/29 04:41:56;;;;;;;6.93;5.05;;;;;;;;;;4725688;30;20060;-89
2022/04/29 04:44:22;;;;;;;7.28;6.25;;;;;;;;;;4725213;30;20051;-91
2022/04/29 04:46:48;;;;;;;14.15;6.88;;;;;;;;;;4725780;30;20068;-91
2022/04/29 04:49:15;;;;;;;10.15;6.97;;;;;;;;;;4725450;30;20048;-91
2022/04/29 04:51:42;;;;;;;12.85;6.35;;;;;;;;;;4726665;30;20076;-91
2022/04/29 04:54:08;;;;;;;8.65;6.78;;;;;;;;;;4725471;30;20457;-91
2022/04/29 04:56:34;;;;;;;9.63;6.55;;;;;;;;;;4724890;30;20063;-91
2022/04/29 04:59:00;;;;;;;12.77;6.68;;;;;;;;;;4726306;30;20502;-91
2022/04/29 05:01:28;;;;;;;11.77;6.43;;;;;;;;;;4724994;30;20056;-90
2022/04/29 05:03:57;;;;;;;8.00;5.35;;;;;;;;;;4724278;30;20044;-92
2022/04/29 05:06:23;;;;;;;7.10;5.97;;;;;;;;;;4723481;30;20052;-92
2022/04/29 05:08:49;;;;;;;12.73;6.32;;;;;;;;;;4723797;30;20083;-92
2022/04/29 05:11:16;;;;;;;11.23;6.57;;;;;;;;;;4723812;30;20113;-92
2022/04/29 05:13:45;;;;;;;8.35;5.75;;;;;;;;;;4724483;30;20125;-92
2022/04/29 05:16:11;;;;;;;8.82;5.63;;;;;;;;;;4724073;30;20067;-92
2022/04/29 05:18:37;;;;;;;9.60;5.30;;;;;;;;;;4723738;30;20147;-92
2022/04/29 05:21:05;;;;;;;13.82;5.20;;;;;;;;;;4710541;30;20060;-93
2022/04/29 05:23:36;;;;;;;8.68;5.15;;;;;;;;;;4739079;30;20063;-93
2022/04/29 05:26:05;;;;;;;6.90;5.60;;;;;;;;;;4724202;30;20068;-92
2022/04/29 05:28:34;;;;;;;8.30;4.43;;;;;;;;;;4726494;30;20059;-91
2022/04/29 05:31:21;;;;;;;14.05;4.95;;;;;;;;;;4727711;30;20110;-92
2022/04/29 05:33:47;;;;;;;6.88;4.63;;;;;;;;;;4742008;30;20544;-92
2022/04/29 05:36:14;;;;;;;7.72;5.32;;;;;;;;;;4729188;30;20102;-91
2022/04/29 05:44:10;;;;;;;10.05;5.20;;;;;;;;;;4743184;30;20052;-91
2022/04/29 05:46:36;;;;;;;9.32;4.88;;;;;;;;;;4742009;30;20060;-91
2022/04/29 05:49:03;;;;;;;5.93;3.90;;;;;;;;;;4730179;30;20080;-92
2022/04/29 05:51:29;;;;;;;12.05;4.55;;;;;;;;;;4727213;30;20051;-92
2022/04/29 05:53:55;;;;;;;6.18;4.18;;;;;;;;;;4728779;30;20048;-92
2022/04/29 05:56:21;;;;;;;6.32;4.70;;;;;;;;;;4744645;30;20450;-91
2022/04/29 05:58:55;;;;;;;7.85;4.60;;;;;;;;;;4729537;30;20070;-92
2022/04/29 06:01:21;;;;;;;7.85;4.38;;;;;;;;;;4731664;30;20052;-89
2022/04/29 06:03:48;;;;;;;6.28;4.32;;;;;;;;;;4733794;30;20063;-91
2022/04/29 06:06:14;;;;;;;6.65;3.90;;;;;;;;;;4727305;30;20088;-92
2022/04/29 06:08:40;;;;;;;8.13;4.38;;;;;;;;;;4742112;30;20077;-92
2022/04/29 06:11:06;;;;;;;8.82;4.85;;;;;;;;;;4742149;30;20514;-92
2022/04/29 06:13:32;;;;;;;7.43;4.80;;;;;;;;;;4727166;30;20067;-92
2022/04/29 06:15:59;;;;;;;7.07;5.10;;;;;;;;;;4726841;30;20410;-92
2022/04/29 06:18:25;;;;;;;6.20;4.90;;;;;;;;;;4728969;30;20056;-91
2022/04/29 06:20:53;;;;;;;6.10;4.80;;;;;;;;;;4727321;30;20422;-91
2022/04/29 06:23:19;;;;;;;17.40;5.45;;;;;;;;;;4726702;30;20053;-91
2022/04/29 06:25:45;;;;;;;10.02;5.05;;;;;;;;;;4726926;30;20052;-91
2022/04/29 06:28:12;;;;;;;7.50;4.70;;;;;;;;;;4728040;30;20444;-91
2022/04/29 06:30:38;;;;;;;6.55;4.93;;;;;;;;;;4726526;30;20052;-91
2022/04/29 06:33:05;;;;;;;8.57;5.22;;;;;;;;;;4727068;30;20051;-91
2022/04/29 06:35:31;;;;;;;7.63;4.40;;;;;;;;;;4726217;30;20044;-91
2022/04/29 06:37:58;;;;;;;7.03;4.03;;;;;;;;;;4726460;30;20395;-92
2022/04/29 06:40:29;;;;;;;5.45;3.90;;;;;;;;;;4727096;30;20044;-91
2022/04/29 06:42:55;;;;;;;4.32;3.63;;;;;;;;;;4727530;30;20064;-91
2022/04/29 06:45:21;;;;;;;10.77;3.90;;;;;;;;;;4726586;30;20502;-92
2022/04/29 06:47:47;;;;;;;4.40;3.50;;;;;;;;;;4726867;30;20109;-92
2022/04/29 06:50:13;;;;;;;8.35;3.90;;;;;;;;;;4741685;30;20056;-93
2022/04/29 06:52:40;;;;;;;3.95;3.60;;;;;;;;;;4727614;30;20060;-92
2022/04/29 06:55:06;;;;;;;4.25;3.63;;;;;;;;;;4727629;30;20056;-91
2022/04/29 06:57:32;;;;;;;4.82;3.25;;;;;;;;;;4726776;30;20524;-91
2022/04/29 06:59:58;;;;;;;4.35;3.28;;;;;;;;;;4727252;30;20490;-92
2022/04/29 07:02:25;;;;;;;6.57;3.33;;;;;;;;;;4725365;30;20052;-91
2022/04/29 07:04:53;;;;;;;6.85;3.25;;;;;;;;;;4725825;30;20056;-92
2022/04/29 07:07:19;;;;;;;6.88;3.38;;;;;;;;;;4739677;30;20139;-89
2022/04/29 07:09:45;;;;;;;7.97;3.92;;;;;;;;;;4727004;30;20048;-90
2022/04/29 07:12:11;;;;;;;6.65;3.47;;;;;;;;;;4724359;30;20052;-90
2022/04/29 07:14:40;;;;;;;7.18;2.95;;;;;;;;;;4725465;30;20048;-90
2022/04/29 07:17:08;;;;;;;5.72;2.80;;;;;;;;;;4725101;30;20063;-91
2022/04/29 07:19:36;;;;;;;6.57;2.72;;;;;;;;;;4727759;30;20541;-91
2022/04/29 07:22:02;;;;;;;7.20;3.13;;;;;;;;;;4740735;30;20510;-91
2022/04/29 07:24:29;;;;;;;5.85;3.30;;;;;;;;;;4739356;30;20048;-91
2022/04/29 07:26:56;;;;;;;5.32;3.22;;;;;;;;;;4726616;30;20059;-90
2022/04/29 07:29:23;;;;;;;4.22;2.90;;;;;;;;;;4727096;30;20394;-91
2022/04/29 07:31:49;;;;;;;11.20;3.22;;;;;;;;;;4725502;30;20052;-91
2022/04/29 07:34:15;;;;;;;4.82;3.38;;;;;;;;;;4724803;30;20048;-89
2022/04/29 07:42:31;;;;;;;5.18;3.00;;;;;;;;;;4703200;30;20053;-87
2022/04/29 07:44:57;;;;;;;5.80;2.60;;;;;;;;;;4702264;30;20508;-89
2022/04/29 07:47:23;;;;;;;5.65;2.40;;;;;;;;;;4703301;30;20060;-89
2022/04/29 07:49:52;;;;;;;3.70;2.97;;;;;;;;;;4688438;30;20090;-89
2022/04/29 07:52:19;;;;;;;4.60;3.40;;;;;;;;;;4703868;30;20049;-94
2022/04/29 07:54:45;;;;;;;5.68;2.80;;;;;;;;;;4707342;30;20067;-91
2022/04/29 07:57:11;;;;;;;3.50;3.08;;;;;;;;;;4704397;30;20061;-91
2022/04/29 07:59:40;;;;;;;3.30;3.00;;;;;;;;;;4704831;30;20053;-91
2022/04/29 08:02:06;;;;;;;4.10;3.20;;;;;;;;;;4708270;30;20073;-92
2022/04/29 08:04:42;;;;;;;5.88;3.33;;;;;;;;;;4708014;30;20061;-93
2022/04/29 08:07:11;;;;;;;4.15;3.33;;;;;;;;;;4705702;30;20044;-93
2022/04/29 08:09:37;;;;;;;8.63;3.90;;;;;;;;;;4714596;30;20072;-91
2022/04/29 08:12:04;;;;;;;6.97;3.03;;;;;;;;;;4732939;30;20052;-92
2022/04/29 08:14:31;;;;;;;5.50;3.65;;;;;;;;;;4732922;29;20059;-93
2022/04/29 08:17:06;;;;;;;11.18;3.97;;;;;;;;;;4732410;30;20068;-92
2022/04/29 08:19:35;;;;;;;4.35;3.00;;;;;;;;;;4746332;30;20060;-91
2022/04/29 08:22:02;;;;;;;7.10;3.58;;;;;;;;;;4732847;30;20106;-91
2022/04/29 08:24:29;;;;;;;6.35;3.10;;;;;;;;;;4731817;30;20111;-90
2022/04/29 08:26:55;;;;;;;5.28;3.28;;;;;;;;;;4744755;30;20518;-88
2022/04/29 08:29:21;;;;;;;8.55;3.35;;;;;;;;;;4746061;30;20048;-91
2022/04/29 08:31:48;;;;;;;3.92;3.47;;;;;;;;;;4726395;30;20072;-90
2022/04/29 08:34:17;;;;;;;3.40;2.92;;;;;;;;;;4726328;30;20041;-90
2022/04/29 08:40:19;;;;;;;5.47;4.25;;;;;;;;;;4743507;30;20055;-94
2022/04/29 09:12:14;;;;;;;2.85;2.65;;;;;;;;;;2819185;24;20063;-92
2022/04/29 09:14:41;;;;;;;10.18;3.33;;;;;;;;;;4749055;30;20051;-92
2022/04/29 09:23:21;;;;;;;;;;;;;;;;;;;;;
2022/04/29 09:26:39;;;;;;;7.88;3.72;;;;;;;;;;4694897;30;20071;-93
2022/04/29 10:10:15;;;;;;;4.85;4.00;;;;;;;;;;4494915;27;20047;-92
2022/04/29 10:16:03;;;;;;;5.35;4.68;;;;;;;;;;4858447;24;20063;-89
2022/04/29 10:21:40;;;;;;;7.57;3.92;;;;;;;;;;4709384;30;20065;-93
2022/04/29 10:24:29;;;;;;;7.05;4.00;;;;;;;;;;5147189;24;20058;31
2022/04/29 10:27:11;;;;;;;9.57;4.90;;;;;;;;;;4729474;24;20480;-92
2022/04/29 10:29:41;;;;;;;6.30;4.10;;;;;;;;;;4741177;30;20044;-91
2022/04/29 10:32:12;;;;;;;3.95;2.85;;;;;;;;;;4772461;24;20061;-91
2022/04/29 10:35:33;;;;;;;7.30;3.85;;;9.90;99.90;;;;;;4835798;24;20087;-90
2022/04/29 10:38:12;;;;;;;4.15;3.65;;;;;;;;;;4754153;24;20064;-89
2022/04/29 10:40:43;;;;;;;7.65;3.53;;;;;;;;;;4724260;30;20056;-89
2022/04/29 10:43:18;;;;;;;6.47;3.80;;;;;;;;;;4710132;30;20087;-90
2022/04/29 10:46:19;;;;;;;3.88;2.95;;;10.10;99.90;;;;;;4716739;24;20049;-90
2022/04/29 10:52:02;;;;;;;;;;;;;;;;;;;;;
2022/04/29 11:34:10;;;;;;;10.73;3.63;;;;;;;;;;5213249;24;20052;-94
2022/04/29 11:36:39;;;;;;;4.97;3.17;;;;;;;;;;4720785;30;20086;-93
2022/04/29 11:39:30;;;;;;;7.53;3.63;;;;;;;;;;4717769;30;20143;-95
2022/04/29 11:42:08;;;;;;;8.27;3.80;;;;;;;;;;4724528;30;20096;-93
2022/04/29 11:44:49;;;;;;;5.72;3.75;;;;;;;;;;4726712;30;20491;-95
2022/04/29 11:50:51;;;;;;;5.72;3.25;;;;;;;;;;4738482;30;20075;-93
2022/04/29 12:05:08;;;;;;;4.28;3.40;;;;;;;;;;4755742;30;20040;-95
2022/04/29 12:07:42;;;;;;;11.30;3.72;;;;;;;;;;4687919;30;20081;-95
2022/04/29 12:10:33;;;;;;;3.55;3.20;;;;;;;;;;4675671;30;20583;-95
2022/04/29 12:13:05;;;;;;;3.33;2.75;;;;;;;;;;4676017;30;20061;-95
2022/04/29 12:15:32;;;;;;;6.70;3.55;;;;;;;;;;4675810;30;20088;-90
2022/04/29 12:17:59;;;;;;;6.90;3.35;;;;;;;;;;4674439;30;20058;-93
2022/04/29 12:20:31;;;;;;;8.60;3.53;;;;;;;;;;4673595;30;20100;-94
2022/04/29 12:23:13;;;;;;;7.43;2.90;;;;;;;;;;4674696;30;20069;-94
2022/04/29 12:25:45;;;;;;;7.82;3.33;;;;;;;;;;4674192;30;20412;-93
2022/04/29 12:28:38;;;;;;;7.88;3.28;;;;;;;;;;4673693;30;20054;-93
2022/04/29 12:37:05;;;;;;;4.18;3.78;;;;;;;;;;4651616;30;20061;-93
2022/04/29 12:39:39;;;;;;;5.78;3.05;;;;;;;;;;4652588;30;20054;-93
2022/04/29 12:42:13;;;;;;;6.90;3.25;;;;;;;;;;4653502;30;20078;-92
2022/04/29 12:45:14;;;;;;;5.53;2.95;;;;;;;;;;4653557;30;20117;-92
2022/04/29 12:47:42;;;;;;;3.40;2.88;;;;;;;;;;4653491;30;20129;-94
2022/04/29 12:50:28;;;;;;;3.65;3.10;;;;;;;;;;4679523;24;20101;-91
2022/04/29 12:53:59;;;;;;;7.57;3.08;;;10.90;99.90;;;;;;4719062;24;20083;-95
2022/04/29 12:56:48;;;;;;;4.55;2.95;;;;;;;;;;4708534;30;20037;-94
2022/04/29 13:02:11;;;;;;;7.97;3.15;;;;;;;;;;4795148;24;20383;-94
2022/04/29 13:04:40;;;;;;;5.70;2.90;;;;;;;;;;4725617;30;20509;-91
2022/04/29 13:07:06;;;;;;;2.92;2.63;;;;;;;;;;5062368;24;20422;-92
2022/04/29 13:16:17;;;;;;;3.33;2.75;;;;;;;;;;4759105;30;20067;-96
2022/04/29 13:19:11;;;;;;;11.82;3.58;;;;;;;;;;4744257;30;20052;-95
2022/04/29 13:33:03;;;;;;;4.70;3.80;;;;;;;;;;1583806;24;20502;-94
2022/04/29 13:38:19;;;;;;;5.28;3.83;;;;;;;;;;4772623;24;20094;-94
2022/04/29 13:40:51;;;;;;;6.28;4.55;;;;;;;;;;4724998;30;20079;-95
2022/04/29 13:56:20;;;;;;;;;;;;;;;;;;;;;
2022/04/29 13:59:24;;;;;;;7.30;4.80;;;;;;;;;;4781805;30;20119;-92
2022/04/29 14:01:50;;;;;;;7.28;4.85;;;;;;;;;;4719380;30;20064;-92
2022/04/29 14:06:52;;;;;;;6.55;4.70;;;;;;;;;;4840486;24;20518;-93
2022/04/29 14:09:23;;;;;;;13.43;5.30;;;;;;;;;;4729351;30;20056;-93
2022/04/29 14:17:03;;;;;;;9.25;4.82;;;;;;;;;;4740421;28;20056;-91
2022/04/29 14:19:32;;;;;;;21.77;6.13;;;;;;;;;;4743468;30;20048;-90
2022/04/29 14:24:43;;;;;;;9.27;4.60;;;;;;;;;;5007945;24;20096;-89
2022/04/29 14:27:12;;;;;;;7.20;5.15;;;;;;;;;;4792529;24;20072;-90
2022/04/29 14:38:33;;;;;;;8.80;5.32;;;;;;;;;;4814455;24;20055;-91
2022/04/29 14:44:46;;;;;;;5.97;4.63;;;;;;;;;;4769016;24;20153;-92
2022/04/29 14:47:18;;;;;;;7.93;5.25;;;;;;;;;;4726214;30;20053;-90
2022/04/29 14:49:47;;;;;;;13.52;5.32;;;;;;;;;;4698171;30;20092;-91
2022/04/29 14:57:38;;;;;;;10.35;5.93;;;;;;;;;;4759886;30;20071;-94
2022/04/29 15:00:52;;;;;;;12.93;4.95;;;;;;;;;;4825899;24;20075;-94
2022/04/29 15:06:38;;;;;;;10.20;4.28;;;;;;;;;;5024632;24;20075;-93
2022/04/29 15:16:36;;;;;;;5.22;3.28;;;;;;;;;;5724170;24;20034;-96
2022/04/29 15:26:14;;;;;;;5.20;3.22;;;;;;;;;;4760323;30;20053;-94
2022/04/29 15:31:47;;;;;;;6.45;3.67;;;;;;;;;;5413864;24;20103;-94
2022/04/29 15:34:33;;;;;;;8.63;3.90;;;;;;;;;;4760213;24;20048;-94
2022/04/29 15:37:11;;;;;;;7.88;3.75;;;;;;;;;;4728956;30;20055;-92
2022/04/29 15:39:40;;;;;;;7.72;4.88;;;;;;;;;;4823968;24;20049;31
2022/04/29 15:42:39;;;;;;;6.30;3.47;;;;;;;;;;4691296;30;20067;-93
2022/04/29 15:45:10;;;;;;;5.63;3.58;;;;;;;;;;4706357;30;20061;-91
2022/04/29 15:47:39;;;;;;;4.85;3.20;;;;;;;;;;4706330;30;20068;-91
2022/04/29 15:50:09;;;;;;;7.55;2.80;;;;;;;;;;4706285;30;20131;-91
2022/04/29 15:55:51;;;;;;;;;;;;;;;;;;;;;
2022/04/29 16:01:42;;;;;;;3.63;2.28;;;;;;;;;;4723374;30;20193;-93
2022/04/29 16:10:43;;;;;;;3.40;2.67;;;;;;;;;;4826698;24;20102;-92
2022/04/29 16:25:41;;;;;;;5.15;2.30;;;;;;;;;;4756531;30;20068;-92
2022/04/29 16:29:17;;;;;;;;;;;;;;;;;;;;;
2022/04/29 16:32:09;;;;;;;;;;;;;;;;;;;;;
2022/04/29 16:35:11;;;;;;;;;;;;;;;;;;;;;
2022/04/29 16:44:48;;;;;;;4.20;1.92;;;;;;;;;;4655257;30;20062;-94
2022/04/29 16:50:58;;;;;;;6.60;2.22;;;;;;;;;;4594089;31;20087;-93
2022/04/29 16:53:54;;;;;;;;;;;;;;;;;;;;;
2022/04/29 16:59:12;;;;;;;2.03;1.80;;;;;;;;;;4779076;24;20062;-93
2022/04/29 17:02:04;;;;;;;2.08;1.67;;;;;;;;;;4729147;30;20060;-94
2022/04/29 17:38:58;;;;;;;;;;;;;;;;;;;;;
2022/04/29 17:45:23;;;;;;;;;;;;;;;;;;;;;
2022/04/29 18:46:05;;;;;;;;;;;;;;;;;;;;;
2022/04/29 19:40:07;;;;;;;7.30;4.30;;;;;;;;;;4768602;30;20056;-91
2022/04/29 19:45:32;;;;;;;7.90;4.20;;;;;;;;;;1420878;24;20068;-93
2022/04/29 19:48:39;;;;;;;8.88;4.75;;;;;;;;;;4740067;30;20491;-91
2022/04/29 19:51:20;;;;;;;7.20;4.55;;;;;;;;;;4728531;30;20052;-92
2022/04/29 19:54:06;;;;;;;9.07;4.90;;;;;;;;;;4728296;30;20052;-91
2022/04/29 19:59:10;;;;;;;7.57;4.78;;;;;;;;;;4727633;30;20049;-92
2022/04/29 19:59:45;;;;;;;;;;;;;;;;;;;;;
2022/04/29 20:05:15;;;;;;;7.90;4.72;;;;;;;;;;4741501;30;20053;-92
2022/04/29 20:07:49;;;;;;;9.48;5.20;;;;;;;;;;4725386;30;20555;-92
2022/04/29 20:10:34;;;;;;;9.35;5.70;;;;;;;;;;4726665;30;20055;-92
2022/04/29 20:13:09;;;;;;;10.10;5.88;;;;;;;;;;4727136;30;20044;-92
2022/04/29 20:15:44;;;;;;;6.68;4.80;;;;;;;;;;4728203;30;20060;-92
2022/04/29 20:19:03;;;;;;;;;;;;;;;;;;;;;
2022/04/29 20:21:39;;;;;;;;;;;;;;;;;;;;;
2022/04/29 20:24:23;;;;;;;;;;;;;;;;;;;;;
2022/04/29 20:30:01;;;;;;;;;;;;;;;;;;;;;
2022/04/29 20:32:50;;;;;;;;;;;;;;;;;;;;;
2022/04/29 20:50:32;;;;;;;13.32;6.22;;;;;;;;;;4632155;28;20063;-92
2022/04/29 20:59:01;;;;;;;10.80;6.10;;;;;;;;;;4692696;30;20101;-91
2022/04/29 21:01:30;;;;;;;12.90;5.60;;;;;;;;;;4693476;30;20091;-91
2022/04/29 21:04:01;;;;;;;14.73;6.13;;;;;;;;;;4691802;30;20057;-91
2022/04/29 21:06:33;;;;;;;10.30;6.50;;;;;;;;;;4693732;30;20049;-91
2022/04/29 21:09:06;;;;;;;10.13;7.05;;;;;;;;;;4692707;30;20054;-91
2022/04/29 21:11:55;;;;;;;;;;;;;;;;;;;;;
2022/04/29 21:14:48;;;;;;;14.00;6.72;;;;;;;;;;4691803;30;20097;-93
2022/04/29 21:17:26;;;;;;;;;;;;;;;;;;;;;
2022/04/29 21:19:53;;;;;;;11.23;6.20;;;;;;;;;;4718874;24;20072;-91
2022/04/29 21:22:35;;;;;;;;;;;;;;;;;;;;;
2022/04/29 21:25:41;;;;;;;14.57;7.22;;;;;;;;;;4765082;24;20112;-91
2022/04/29 21:31:16;;;;;;;10.25;6.22;;;;;;;;;;4745423;30;20134;-92
2022/04/29 21:33:44;;;;;;;8.43;6.28;;;;;;;;;;4728507;30;20056;-92
2022/04/29 21:36:13;;;;;;;9.68;6.50;;;;;;;;;;4727477;30;20059;-93
2022/04/29 21:38:39;;;;;;;15.25;6.55;;;;;;;;;;4726888;30;20062;-93
2022/04/29 21:41:34;;;;;;;14.05;6.55;;;;;;;;;;4728526;30;20052;-92
2022/04/29 21:44:26;;;;;;;9.55;6.05;;;;;;;;;;4723437;30;20092;-93
2022/04/29 21:47:12;;;;;;;14.82;7.05;;;;;;;;;;4724330;30;20496;-93
2022/04/29 21:49:54;;;;;;;15.60;6.75;;;;;;;;;;4670230;30;20067;-93
2022/04/29 21:52:23;;;;;;;10.70;6.45;;;;;;;;;;4657166;30;20062;-93
2022/04/29 21:54:52;;;;;;;11.40;7.38;;;;;;;;;;4657204;30;20066;-92
2022/04/29 21:57:24;;;;;;;12.50;6.63;;;;;;;;;;4657009;30;20061;-93
2022/04/29 22:00:09;;;;;;;10.98;5.97;;;;;;;;;;4655742;30;20093;-92
2022/04/29 22:02:45;;;;;;;13.02;7.18;;;;;;;;;;4654895;30;20092;-93
2022/04/29 22:05:16;;;;;;;12.35;6.65;;;;;;;;;;4669903;30;20104;-92
2022/04/29 22:07:50;;;;;;;15.80;6.70;;;;;;;;;;4656559;30;20097;-94
2022/04/29 22:10:16;;;;;;;10.30;7.15;;;;;;;;;;4655725;30;20066;-94
2022/04/29 22:12:44;;;;;;;10.38;6.25;;;;;;;;;;4656543;30;20077;-94
2022/04/29 22:15:11;;;;;;;11.45;6.78;;;;;;;;;;4656113;30;20061;-94
2022/04/29 22:17:38;;;;;;;9.02;6.22;;;;;;;;;;4657348;30;20127;-94
2022/04/29 22:20:07;;;;;;;20.58;7.35;;;;;;;;;;4656571;30;20054;-94
2022/04/29 22:22:33;;;;;;;8.48;6.60;;;;;;;;;;4658216;30;20054;-94
2022/04/29 22:25:01;;;;;;;15.23;7.38;;;;;;;;;;4663237;30;20042;-94
2022/04/29 22:27:31;;;;;;;12.88;7.30;;;;;;;;;;4708124;30;20072;-94
2022/04/29 22:29:59;;;;;;;12.32;7.07;;;;;;;;;;4708228;30;20133;-92
2022/04/29 22:32:26;;;;;;;13.05;6.53;;;;;;;;;;4709037;30;20049;-93
2022/04/29 22:34:52;;;;;;;14.73;6.55;;;;;;;;;;4707795;30;20121;-93
2022/04/29 22:37:19;;;;;;;10.68;7.20;;;;;;;;;;4709130;30;20503;-93
2022/04/29 22:39:48;;;;;;;10.13;6.72;;;;;;;;;;4708190;30;20064;-92
2022/04/29 22:42:17;;;;;;;13.45;6.60;;;;;;;;;;4707920;30;20107;-92
2022/04/29 22:44:46;;;;;;;11.57;6.95;;;;;;;;;;4708629;30;20053;-92
2022/04/29 22:47:13;;;;;;;9.43;6.45;;;;;;;;;;4708868;30;20049;-93
2022/04/29 22:49:39;;;;;;;12.73;6.38;;;;;;;;;;4709609;30;20041;-92
2022/04/29 22:52:07;;;;;;;10.23;6.00;;;;;;;;;;4709522;30;20061;-92
2022/04/29 22:54:34;;;;;;;8.02;5.70;;;;;;;;;;4708681;30;20045;-92
2022/04/29 22:57:01;;;;;;;7.38;5.70;;;;;;;;;;4706260;30;20053;-92
2022/04/29 22:59:28;;;;;;;12.10;5.60;;;;;;;;;;4707533;30;20570;-92
2022/04/29 23:01:54;;;;;;;8.57;5.68;;;;;;;;;;4707261;30;20057;-92
2022/04/29 23:04:20;;;;;;;6.97;5.30;;;;;;;;;;4707015;30;20056;-92
2022/04/29 23:06:46;;;;;;;9.90;5.47;;;;;;;;;;4706822;30;20053;-92
2022/04/29 23:09:15;;;;;;;11.43;5.95;;;;;;;;;;4707544;30;20053;-92
2022/04/29 23:11:42;;;;;;;10.20;6.03;;;;;;;;;;4707028;30;20060;-92